Time;durP1;ratioP1;P1;durP2;ratioP2;P2;SDS_P1;SDS_P2;PMS_P1;PMS_P2;Temp;Humidity;BMP_temperature;BMP_pressure;BME280_temperature;BME280_humidity;BME280_pressure;Samples;Min_cycle;Max_cycle;Signal;HPM_P1;HPM_P2
2022/08/26 00:02:02;;;;;;;47.28;43.20;;;21.30;99.90;;;;;;4981437;28;20050;-92
2022/08/26 00:04:28;;;;;;;52.33;47.72;;;21.20;99.90;;;;;;5001116;28;20052;-94
2022/08/26 00:06:54;;;;;;;51.10;46.67;;;21.20;99.90;;;;;;5001338;28;20470;-94
2022/08/26 00:09:20;;;;;;;52.28;47.63;;;21.20;99.90;;;;;;5001185;28;20065;-94
2022/08/26 00:11:46;;;;;;;51.00;46.42;;;21.10;99.90;;;;;;4996021;28;20046;-92
2022/08/26 00:14:12;;;;;;;54.10;49.28;;;21.10;99.90;;;;;;5000112;28;20108;-92
2022/08/26 00:16:38;;;;;;;53.33;48.75;;;21.10;99.90;;;;;;4980603;28;20042;-92
2022/08/26 00:19:03;;;;;;;55.00;50.35;;;21.00;99.90;;;;;;4997455;28;20510;-92
2022/08/26 00:21:29;;;;;;;56.38;51.38;;;21.00;99.90;;;;;;4999580;28;20066;-91
2022/08/26 00:23:55;;;;;;;56.80;51.80;;;21.00;99.90;;;;;;5001762;28;20559;-93
2022/08/26 00:26:20;;;;;;;57.72;52.65;;;21.00;99.90;;;;;;5002140;28;20042;-93
2022/08/26 00:28:46;;;;;;;57.85;52.83;;;20.90;99.90;;;;;;5001147;28;20470;-94
2022/08/26 00:31:11;;;;;;;57.00;51.90;;;21.00;99.90;;;;;;5000469;28;20081;-96
2022/08/26 00:33:38;;;;;;;56.20;51.10;;;20.80;99.90;;;;;;5004772;28;20053;-95
2022/08/26 00:36:04;;;;;;;58.50;53.35;;;20.80;99.90;;;;;;5002792;28;20059;-95
2022/08/26 00:38:30;;;;;;;61.42;55.92;;;20.80;99.90;;;;;;4979886;28;20050;-93
2022/08/26 00:40:56;;;;;;;59.83;54.58;;;20.80;99.90;;;;;;5000111;28;20057;-94
2022/08/26 00:43:24;;;;;;;59.58;54.30;;;20.80;99.90;;;;;;5001364;28;20072;-94
2022/08/26 00:46:18;;;;;;;57.65;52.53;;;20.70;99.90;;;;;;4985717;28;20045;-92
2022/08/26 00:48:46;;;;;;;60.67;55.40;;;20.70;99.90;;;;;;4999136;28;20068;-92
2022/08/26 00:51:24;;;;;;;59.13;53.75;;;20.60;99.90;;;;;;4981893;28;20117;-90
2022/08/26 00:53:56;;;;;;;59.10;53.80;;;20.60;99.90;;;;;;5000183;28;20154;-95
2022/08/26 00:56:32;;;;;;;61.65;55.92;;;20.60;99.90;;;;;;4996935;28;20419;-91
2022/08/26 00:59:02;;;;;;;60.67;55.05;;;20.60;99.90;;;;;;5001466;28;20046;-94
2022/08/26 01:01:27;;;;;;;57.63;52.22;;;20.60;99.90;;;;;;5002326;28;20599;-95
2022/08/26 01:03:54;;;;;;;59.70;54.25;;;20.60;99.90;;;;;;5003557;28;20042;-95
2022/08/26 01:06:22;;;;;;;63.63;57.55;;;20.50;99.90;;;;;;5007778;28;20037;-94
2022/08/26 01:08:47;;;;;;;60.28;54.70;;;20.60;99.90;;;;;;4987122;28;20415;-93
2022/08/26 01:11:14;;;;;;;60.13;54.25;;;20.50;99.90;;;;;;5004269;28;20042;-91
2022/08/26 01:13:41;;;;;;;58.70;53.17;;;20.50;99.90;;;;;;5008257;28;20143;-94
2022/08/26 01:16:11;;;;;;;58.58;52.85;;;20.50;99.90;;;;;;5010962;28;20064;-93
2022/08/26 01:18:41;;;;;;;59.47;53.60;;;20.50;99.90;;;;;;5006822;28;20034;-92
2022/08/26 01:21:13;;;;;;;58.25;52.67;;;20.50;99.90;;;;;;5008943;28;20101;-95
2022/08/26 01:23:45;;;;;;;58.28;52.13;;;20.50;99.90;;;;;;4995252;28;20038;-93
2022/08/26 01:26:23;;;;;;;59.65;53.78;;;20.50;99.90;;;;;;4985479;28;20073;-93
2022/08/26 01:28:50;;;;;;;57.45;51.75;;;20.50;99.90;;;;;;5003495;28;20045;-93
2022/08/26 01:31:19;;;;;;;59.67;53.67;;;20.50;99.90;;;;;;5003742;28;20064;-94
2022/08/26 01:33:51;;;;;;;55.53;50.13;;;20.50;99.90;;;;;;5001037;28;20058;-91
2022/08/26 01:36:17;;;;;;;55.35;49.53;;;20.50;99.90;;;;;;5004648;28;20418;-94
2022/08/26 01:38:44;;;;;;;55.05;49.40;;;20.50;99.90;;;;;;5006740;28;20133;-94
2022/08/26 01:41:15;;;;;;;53.60;48.40;;;20.50;99.90;;;;;;5012616;28;20301;-95
2022/08/26 01:43:43;;;;;;;;;;;20.50;99.90;;;;;;4999756;28;20037;-95
2022/08/26 01:46:10;;;;;;;51.65;46.63;;;20.50;99.90;;;;;;5012883;28;19921;-95
2022/08/26 01:48:37;;;;;;;52.60;47.17;;;20.50;99.90;;;;;;5009112;28;20045;-93
2022/08/26 01:51:06;;;;;;;51.40;46.10;;;20.50;99.90;;;;;;5008774;28;20384;-95
2022/08/26 01:53:32;;;;;;;51.00;45.72;;;20.60;99.90;;;;;;5009346;28;20049;-94
2022/08/26 01:56:01;;;;;;;49.72;44.72;;;20.70;99.90;;;;;;4992267;28;20491;-94
2022/08/26 01:58:40;;;;;;;48.10;43.17;;;20.60;99.90;;;;;;5009998;28;20085;-94
2022/08/26 02:01:05;;;;;;;46.65;42.05;;;20.60;99.90;;;;;;5001472;28;20042;-92
2022/08/26 02:03:32;;;;;;;46.53;42.08;;;20.60;99.90;;;;;;4989393;28;20446;-94
2022/08/26 02:06:03;;;;;;;46.00;41.20;;;20.60;99.90;;;;;;5007926;28;20061;-93
2022/08/26 02:08:37;;;;;;;44.47;39.90;;;20.60;99.90;;;;;;5011388;28;20111;-93
2022/08/26 02:11:04;;;;;;;46.00;41.30;;;20.60;99.90;;;;;;5003528;28;20103;-94
2022/08/26 02:13:32;;;;;;;44.17;39.40;;;20.60;99.90;;;;;;5006145;28;20054;-93
2022/08/26 02:16:00;;;;;;;43.63;39.03;;;20.70;99.90;;;;;;5009964;28;20049;-93
2022/08/26 02:18:29;;;;;;;42.65;38.28;;;20.60;99.90;;;;;;5006923;28;20410;-93
2022/08/26 02:20:55;;;;;;;42.85;38.40;;;20.70;99.90;;;;;;5004664;28;20128;-90
2022/08/26 02:23:21;;;;;;;42.17;37.80;;;20.60;99.90;;;;;;5004348;28;20061;-92
2022/08/26 02:25:54;;;;;;;43.03;38.63;;;20.60;99.90;;;;;;5009609;28;20390;-92
2022/08/26 02:28:20;;;;;;;43.17;38.67;;;20.70;99.90;;;;;;5008173;28;20046;-92
2022/08/26 02:30:46;;;;;;;40.58;36.60;;;20.60;99.90;;;;;;5007742;28;20379;-92
2022/08/26 02:33:12;;;;;;;40.58;36.47;;;20.70;99.90;;;;;;4987631;28;20073;-93
2022/08/26 02:35:38;;;;;;;41.10;36.88;;;20.70;99.90;;;;;;5009781;28;20383;-93
2022/08/26 02:38:06;;;;;;;41.22;37.05;;;20.70;99.90;;;;;;5007910;28;20117;-92
2022/08/26 02:40:38;;;;;;;40.97;36.88;;;20.70;99.90;;;;;;4991865;28;20046;-93
2022/08/26 02:43:03;;;;;;;41.47;37.03;;;20.70;99.90;;;;;;5004502;28;20061;-95
2022/08/26 02:45:29;;;;;;;41.10;37.03;;;20.70;99.90;;;;;;5003917;28;20038;-93
2022/08/26 02:47:57;;;;;;;40.95;36.67;;;20.60;99.90;;;;;;5005695;28;20128;-94
2022/08/26 02:50:24;;;;;;;41.13;36.95;;;20.60;99.90;;;;;;5009250;28;20041;-93
2022/08/26 02:52:50;;;;;;;40.00;36.05;;;20.60;99.90;;;;;;4982196;28;21550;-94
2022/08/26 02:55:16;;;;;;;39.33;34.42;;;20.70;99.90;;;;;;5010255;28;20049;-91
2022/08/26 02:57:42;;;;;;;37.55;33.72;;;20.60;99.90;;;;;;4990106;28;20081;-93
2022/08/26 03:00:11;;;;;;;37.55;33.72;;;20.60;99.90;;;;;;5021572;28;20042;-92
2022/08/26 03:02:36;;;;;;;38.13;34.15;;;20.60;99.90;;;;;;5017789;28;20575;-93
2022/08/26 03:05:03;;;;;;;38.70;34.70;;;20.40;99.90;;;;;;5016131;28;20085;-92
2022/08/26 03:07:29;;;;;;;37.55;33.63;;;20.60;99.90;;;;;;5022977;28;20057;-93
2022/08/26 03:09:55;;;;;;;37.38;33.33;;;20.60;99.90;;;;;;5019786;28;20080;-93
2022/08/26 03:12:21;;;;;;;36.65;32.90;;;20.50;99.90;;;;;;5005983;28;20054;-94
2022/08/26 03:14:47;;;;;;;35.85;31.98;;;20.60;99.90;;;;;;4996908;28;20037;-94
2022/08/26 03:17:12;;;;;;;34.92;31.23;;;20.60;99.90;;;;;;5011526;28;20042;-93
2022/08/26 03:19:38;;;;;;;34.47;30.88;;;20.60;99.90;;;;;;4993038;28;20561;-92
2022/08/26 03:22:04;;;;;;;34.58;30.83;;;20.60;99.90;;;;;;5007136;28;20053;-92
2022/08/26 03:24:30;;;;;;;32.80;29.33;;;20.60;99.90;;;;;;5011551;28;20064;-94
2022/08/26 03:26:55;;;;;;;34.78;29.45;;;20.60;99.90;;;;;;5011094;28;20046;-92
2022/08/26 03:32:07;;;;;;;32.63;29.20;;;20.60;99.90;;;;;;5004420;28;20108;-91
2022/08/26 03:34:33;;;;;;;31.35;28.00;;;20.60;99.90;;;;;;5008000;28;20487;-93
2022/08/26 03:36:59;;;;;;;32.95;29.40;;;20.60;99.90;;;;;;4991155;28;20038;-93
2022/08/26 03:39:25;;;;;;;34.85;29.90;;;20.60;99.90;;;;;;4989423;28;20058;-95
2022/08/26 03:41:51;;;;;;;32.50;29.02;;;20.60;99.90;;;;;;4995691;28;20038;-93
2022/08/26 03:44:17;;;;;;;37.55;31.33;;;20.60;99.90;;;;;;5011627;28;20048;-94
2022/08/26 03:46:43;;;;;;;34.30;29.50;;;20.60;99.90;;;;;;5024260;28;20049;-93
2022/08/26 03:49:08;;;;;;;33.28;29.65;;;20.60;99.90;;;;;;4996853;28;20810;-91
2022/08/26 03:51:36;;;;;;;32.70;29.17;;;20.60;99.90;;;;;;5006834;28;20041;-93
2022/08/26 03:54:01;;;;;;;32.15;27.85;;;20.60;99.90;;;;;;4998361;28;20061;-92
2022/08/26 03:56:28;;;;;;;32.97;27.85;;;20.60;99.90;;;;;;4989819;28;20054;-93
2022/08/26 03:58:54;;;;;;;31.33;26.48;;;20.60;99.90;;;;;;5007744;28;20085;-91
2022/08/26 04:01:20;;;;;;;32.53;28.15;;;20.60;99.90;;;;;;5005014;28;20069;-92
2022/08/26 04:03:57;;;;;;;31.50;25.58;;;20.70;99.90;;;;;;4984541;28;20086;-91
2022/08/26 04:06:23;;;;;;;28.27;24.33;;;20.60;99.90;;;;;;5004627;28;20181;-93
2022/08/26 04:08:49;;;;;;;31.23;23.88;;;20.60;99.90;;;;;;5003682;28;20049;-94
2022/08/26 04:11:20;;;;;;;28.70;24.85;;;20.60;99.90;;;;;;5007204;28;20394;-92
2022/08/26 04:13:46;;;;;;;31.58;22.92;;;20.60;99.90;;;;;;4991600;28;20045;-95
2022/08/26 04:16:13;;;;;;;26.75;23.38;;;20.60;99.90;;;;;;4991014;28;20065;-93
2022/08/26 04:18:39;;;;;;;26.45;22.45;;;20.60;99.90;;;;;;5008051;28;20095;-91
2022/08/26 04:21:06;;;;;;;27.33;22.23;;;20.60;99.90;;;;;;5002772;28;20541;-95
2022/08/26 04:23:32;;;;;;;28.42;21.75;;;20.70;99.90;;;;;;5001166;28;20121;-96
2022/08/26 04:26:00;;;;;;;27.38;21.67;;;20.70;99.90;;;;;;5004432;28;20402;-95
2022/08/26 04:28:26;;;;;;;27.23;20.90;;;20.70;99.90;;;;;;5007046;28;20073;-93
2022/08/26 04:30:51;;;;;;;25.10;21.15;;;20.60;99.90;;;;;;4988344;28;20046;-92
2022/08/26 04:33:17;;;;;;;27.90;21.20;;;20.70;99.90;;;;;;5001186;28;20056;-91
2022/08/26 04:35:44;;;;;;;23.30;20.58;;;20.70;99.90;;;;;;5002380;28;20048;-93
2022/08/26 04:38:10;;;;;;;26.20;20.30;;;20.70;99.90;;;;;;5005062;28;20108;-93
2022/08/26 04:40:41;;;;;;;27.10;20.05;;;20.80;99.90;;;;;;5005786;28;20041;-93
2022/08/26 04:43:07;;;;;;;24.52;19.98;;;20.70;99.90;;;;;;4986334;28;20046;-91
2022/08/26 04:45:36;;;;;;;26.63;20.30;;;20.60;99.90;;;;;;4987980;28;20042;-92
2022/08/26 04:48:02;;;;;;;28.13;20.20;;;20.70;99.90;;;;;;5003879;28;20080;-93
2022/08/26 04:50:28;;;;;;;27.17;21.50;;;20.60;99.90;;;;;;5002811;28;20070;-92
2022/08/26 04:52:55;;;;;;;25.38;20.45;;;20.60;99.90;;;;;;5000526;28;20085;-93
2022/08/26 04:55:21;;;;;;;27.27;20.75;;;20.60;99.90;;;;;;5003124;28;20391;-93
2022/08/26 04:57:47;;;;;;;21.90;18.67;;;20.70;99.90;;;;;;5002694;28;20340;-92
2022/08/26 05:00:12;;;;;;;25.98;20.55;;;20.70;99.90;;;;;;5004361;28;20034;-94
2022/08/26 05:02:39;;;;;;;25.55;19.55;;;20.70;99.90;;;;;;4999735;28;20035;-91
2022/08/26 05:05:06;;;;;;;21.35;19.02;;;20.80;99.90;;;;;;5005224;28;20045;-95
2022/08/26 05:07:33;;;;;;;20.08;17.77;;;20.80;99.90;;;;;;5005705;28;20423;-96
2022/08/26 05:09:59;;;;;;;21.58;18.90;;;20.70;99.90;;;;;;5008129;28;20041;-92
2022/08/26 05:12:26;;;;;;;23.50;19.60;;;20.70;99.90;;;;;;5008147;28;20050;-95
2022/08/26 05:14:52;;;;;;;22.20;18.52;;;20.60;99.90;;;;;;4993922;28;20037;-93
2022/08/26 05:17:18;;;;;;;23.30;18.70;;;20.60;99.90;;;;;;4997632;28;20192;-91
2022/08/26 05:19:47;;;;;;;22.55;19.00;;;20.60;99.90;;;;;;5008707;28;20217;-95
2022/08/26 05:22:13;;;;;;;23.13;18.92;;;20.60;99.90;;;;;;5018648;28;20050;-94
2022/08/26 05:24:39;;;;;;;20.10;18.00;;;20.60;99.90;;;;;;4997428;28;20125;-93
2022/08/26 05:27:06;;;;;;;20.52;18.33;;;20.70;99.90;;;;;;5008297;28;20402;-96
2022/08/26 05:29:32;;;;;;;21.85;18.27;;;20.70;99.90;;;;;;5016518;28;20046;-90
2022/08/26 05:31:59;;;;;;;22.77;18.42;;;20.70;99.90;;;;;;5020239;28;20046;-93
2022/08/26 05:34:25;;;;;;;21.23;18.35;;;20.60;99.90;;;;;;5010334;28;20042;-95
2022/08/26 05:36:51;;;;;;;24.08;18.65;;;20.60;99.90;;;;;;5014411;28;20605;-90
2022/08/26 05:39:17;;;;;;;20.98;17.92;;;20.70;99.90;;;;;;5011167;28;20056;-92
2022/08/26 05:41:43;;;;;;;20.48;16.88;;;20.60;99.90;;;;;;5013468;28;20061;-93
2022/08/26 05:44:13;;;;;;;19.55;16.98;;;20.70;99.90;;;;;;5017279;28;20045;-92
2022/08/26 05:46:40;;;;;;;20.17;16.25;;;20.70;99.90;;;;;;5015944;28;20092;-91
2022/08/26 05:49:06;;;;;;;20.15;15.77;;;20.70;99.90;;;;;;5013065;28;20144;-94
2022/08/26 05:51:32;;;;;;;21.60;15.80;;;20.70;99.90;;;;;;5017586;28;20034;-92
2022/08/26 05:54:01;;;;;;;18.35;14.32;;;20.70;99.90;;;;;;5024075;28;20045;-94
2022/08/26 05:56:27;;;;;;;20.58;14.93;;;20.80;99.90;;;;;;4998826;28;20113;-93
2022/08/26 05:58:54;;;;;;;20.35;13.90;;;20.80;99.90;;;;;;4997276;28;20061;-92
2022/08/26 06:01:25;;;;;;;19.65;14.52;;;20.70;99.90;;;;;;5014011;28;20046;-93
2022/08/26 06:03:51;;;;;;;;;;;20.70;99.90;;;;;;5011718;28;20087;-94
2022/08/26 06:06:21;;;;;;;19.42;12.80;;;20.70;99.90;;;;;;5007033;28;20259;-93
2022/08/26 06:08:47;;;;;;;18.58;13.05;;;20.70;99.90;;;;;;5030900;28;20032;-94
2022/08/26 06:11:17;;;;;;;17.95;12.10;;;20.70;99.90;;;;;;5022542;28;20379;-91
2022/08/26 06:13:43;;;;;;;17.30;11.95;;;20.80;99.90;;;;;;4999489;28;20132;-92
2022/08/26 06:16:13;;;;;;;19.23;12.27;;;20.60;99.90;;;;;;5006432;28;20045;-91
2022/08/26 06:18:41;;;;;;;17.40;11.55;;;20.90;99.90;;;;;;5011382;28;20113;-92
2022/08/26 06:21:28;;;;;;;20.52;12.80;;;20.90;99.90;;;;;;4993366;28;20108;-93
2022/08/26 06:27:03;;;;;;;18.55;13.30;;;20.80;99.90;;;;;;5001655;28;20085;-90
2022/08/26 06:29:34;;;;;;;20.25;13.77;;;20.90;99.90;;;;;;4984607;28;20053;-88
2022/08/26 06:32:01;;;;;;;20.05;12.68;;;20.90;99.90;;;;;;4999288;28;20064;-94
2022/08/26 06:34:27;;;;;;;18.33;12.55;;;21.00;99.90;;;;;;4988761;28;19968;-93
2022/08/26 06:36:55;;;;;;;16.02;11.98;;;21.00;99.90;;;;;;5000217;28;20045;-93
2022/08/26 06:39:21;;;;;;;20.95;12.98;;;21.00;99.90;;;;;;5003824;28;20046;-91
2022/08/26 06:41:46;;;;;;;16.95;12.13;;;21.10;99.90;;;;;;5008071;28;20050;-91
2022/08/26 06:44:14;;;;;;;16.90;11.88;;;21.10;99.90;;;;;;5014336;28;20050;-92
2022/08/26 06:46:41;;;;;;;20.90;12.02;;;21.20;99.90;;;;;;5022596;28;20554;-89
2022/08/26 06:49:08;;;;;;;17.27;11.60;;;21.10;99.90;;;;;;5011744;28;20487;-90
2022/08/26 06:51:37;;;;;;;18.23;11.80;;;21.20;99.90;;;;;;5014973;28;20046;-94
2022/08/26 06:54:04;;;;;;;19.85;10.90;;;21.20;99.90;;;;;;5026894;28;20377;-90
2022/08/26 06:56:35;;;;;;;19.65;10.55;;;21.20;99.90;;;;;;5009326;28;20133;-92
2022/08/26 06:59:03;;;;;;;18.50;10.05;;;21.20;99.90;;;;;;5003502;28;20049;-91
2022/08/26 07:01:32;;;;;;;16.45;9.82;;;21.20;99.90;;;;;;4991245;28;20505;-91
2022/08/26 07:04:02;;;;;;;18.13;10.68;;;21.30;99.90;;;;;;4982515;28;20042;-91
2022/08/26 07:06:28;;;;;;;19.02;9.50;;;21.40;99.90;;;;;;4984974;28;20049;-90
2022/08/26 07:09:00;;;;;;;18.42;9.68;;;21.30;99.90;;;;;;5002610;28;20046;-90
2022/08/26 07:11:27;;;;;;;17.05;9.35;;;21.30;99.90;;;;;;5002405;28;20057;-92
2022/08/26 07:13:53;;;;;;;14.70;8.65;;;21.30;99.90;;;;;;5010680;28;20490;-91
2022/08/26 07:16:19;;;;;;;16.67;9.15;;;21.30;99.90;;;;;;5011224;28;20053;-92
2022/08/26 07:18:45;;;;;;;17.35;8.98;;;21.30;99.90;;;;;;5010890;28;20435;-90
2022/08/26 07:21:13;;;;;;;15.02;8.48;;;21.30;99.90;;;;;;5010257;28;20048;-91
2022/08/26 07:23:39;;;;;;;17.83;9.20;;;21.40;99.90;;;;;;5013278;28;20541;-94
2022/08/26 07:26:18;;;;;;;15.85;8.50;;;21.40;99.90;;;;;;5010527;28;20046;-93
2022/08/26 07:28:47;;;;;;;19.13;9.50;;;21.40;99.90;;;;;;5007924;28;20056;-90
2022/08/26 07:31:15;;;;;;;18.08;9.10;;;21.40;99.90;;;;;;5011783;28;20046;-92
2022/08/26 07:33:41;;;;;;;16.27;8.73;;;21.50;99.90;;;;;;4996358;28;20096;-95
2022/08/26 07:36:10;;;;;;;14.63;8.93;;;21.40;99.90;;;;;;5002429;28;20093;-93
2022/08/26 07:38:36;;;;;;;13.82;8.18;;;21.40;99.90;;;;;;5003350;28;20163;-88
2022/08/26 07:41:02;;;;;;;13.82;8.30;;;21.40;99.90;;;;;;4979889;28;20161;-88
2022/08/26 07:43:29;;;;;;;16.40;8.38;;;21.50;99.90;;;;;;4999475;28;20148;-90
2022/08/26 07:45:55;;;;;;;14.00;8.18;;;21.50;99.90;;;;;;5002838;28;20091;-88
2022/08/26 07:48:21;;;;;;;17.70;7.00;;;21.50;99.90;;;;;;5007441;28;20041;-91
2022/08/26 07:50:46;;;;;;;17.83;7.70;;;21.50;99.90;;;;;;5009584;28;20042;-88
2022/08/26 07:53:13;;;;;;;14.70;7.63;;;21.50;99.90;;;;;;5006632;28;20042;-91
2022/08/26 07:55:38;;;;;;;13.82;6.53;;;21.40;99.90;;;;;;5005849;28;20046;-91
2022/08/26 07:58:05;;;;;;;13.73;6.70;;;21.40;99.90;;;;;;5000785;28;20901;-89
2022/08/26 08:00:32;;;;;;;16.58;7.03;;;21.40;99.90;;;;;;4980751;28;20054;-88
2022/08/26 08:03:04;;;;;;;13.35;6.47;;;21.40;99.90;;;;;;4984499;28;20046;-87
2022/08/26 08:05:31;;;;;;;14.07;6.43;;;21.40;99.90;;;;;;4981090;28;20041;-89
2022/08/26 08:08:02;;;;;;;14.73;6.53;;;21.40;99.90;;;;;;4997125;28;20069;-91
2022/08/26 08:10:28;;;;;;;14.95;5.95;;;21.50;99.90;;;;;;5006317;28;20096;-89
2022/08/26 08:12:55;;;;;;;15.45;6.88;;;21.40;99.90;;;;;;4982594;28;20507;-87
2022/08/26 08:15:25;;;;;;;15.57;6.50;;;21.40;99.90;;;;;;5005926;28;20042;-89
2022/08/26 08:17:51;;;;;;;15.57;6.90;;;21.40;99.90;;;;;;5005908;28;20140;-90
2022/08/26 08:20:18;;;;;;;13.82;5.88;;;21.40;99.90;;;;;;4989943;28;20879;-90
2022/08/26 08:22:43;;;;;;;14.48;6.22;;;21.30;99.90;;;;;;4982611;28;20208;-88
2022/08/26 08:25:10;;;;;;;13.70;5.95;;;21.30;99.90;;;;;;5006132;28;20337;-89
2022/08/26 08:27:37;;;;;;;14.50;6.38;;;21.40;99.90;;;;;;5007742;28;20856;-89
2022/08/26 08:30:05;;;;;;;12.82;5.35;;;21.30;99.90;;;;;;5006348;28;20042;-86
2022/08/26 08:32:31;;;;;;;11.20;5.07;;;21.40;99.90;;;;;;4994268;28;20471;-89
2022/08/26 08:34:58;;;;;;;13.82;5.55;;;21.40;99.90;;;;;;4991463;28;20049;-88
2022/08/26 08:37:24;;;;;;;11.45;5.07;;;21.40;99.90;;;;;;4999913;28;20049;-89
2022/08/26 08:39:49;;;;;;;12.35;4.80;;;21.40;99.90;;;;;;4997687;28;20045;-89
2022/08/26 08:42:39;;;;;;;11.60;4.28;;;21.50;99.90;;;;;;4999511;28;20042;-94
2022/08/26 08:45:20;;;;;;;12.35;4.20;;;21.40;99.90;;;;;;4991830;28;20053;-90
2022/08/26 08:47:50;;;;;;;12.73;4.15;;;21.40;99.90;;;;;;4993573;28;20037;-93
2022/08/26 08:50:33;;;;;;;10.77;3.65;;;21.40;99.90;;;;;;5019654;28;20115;-92
2022/08/26 08:53:31;;;;;;;12.52;3.67;;;21.40;99.90;;;;;;5005044;28;20060;-91
2022/08/26 08:56:29;;;;;;;11.18;3.72;;;21.40;99.90;;;;;;4990356;28;20046;-93
2022/08/26 08:58:59;;;;;;;12.38;3.15;;;21.40;99.90;;;;;;4999527;28;20069;-93
2022/08/26 09:01:32;;;;;;;14.77;3.85;;;21.40;99.90;;;;;;4995132;28;20077;-91
2022/08/26 09:04:22;;;;;;;11.27;2.97;;;21.40;99.90;;;;;;4990154;28;20062;-92
2022/08/26 09:06:51;;;;;;;12.35;3.50;;;21.50;99.90;;;;;;4986700;28;20473;-90
2022/08/26 09:09:26;;;;;;;11.65;3.10;;;21.50;99.90;;;;;;4991791;28;20137;-91
2022/08/26 09:11:55;;;;;;;12.38;2.85;;;21.50;99.90;;;;;;4988301;28;20044;-91
2022/08/26 09:14:21;;;;;;;11.70;2.70;;;21.50;99.90;;;;;;5011192;28;20057;-94
2022/08/26 09:17:02;;;;;;;10.45;2.45;;;21.50;99.90;;;;;;4999132;28;20100;-94
2022/08/26 09:19:41;;;;;;;9.95;2.38;;;21.50;99.90;;;;;;5012731;28;20109;-90
2022/08/26 09:22:07;;;;;;;7.95;2.40;;;21.50;99.90;;;;;;4994174;28;20088;-94
2022/08/26 09:24:37;;;;;;;9.25;2.35;;;21.40;99.90;;;;;;4992310;28;20433;-93
2022/08/26 09:27:02;;;;;;;11.38;3.35;;;21.50;99.90;;;;;;5006357;28;20320;-93
2022/08/26 09:29:42;;;;;;;10.60;2.10;;;21.60;99.90;;;;;;4994357;28;20053;-95
2022/08/26 09:32:20;;;;;;;9.35;2.20;;;21.60;99.90;;;;;;5011968;28;20057;-95
2022/08/26 09:34:55;;;;;;;8.95;1.90;;;21.60;99.90;;;;;;5008146;28;20142;-93
2022/08/26 09:37:46;;;;;;;10.55;2.40;;;21.60;99.90;;;;;;4990870;28;20131;-93
2022/08/26 09:40:17;;;;;;;9.57;2.10;;;21.70;99.90;;;;;;4993300;28;20053;-93
2022/08/26 09:42:43;;;;;;;7.75;2.30;;;21.70;99.90;;;;;;5009953;28;20061;-92
2022/08/26 09:45:11;;;;;;;8.60;2.30;;;21.70;99.90;;;;;;4992378;28;20449;-89
2022/08/26 09:47:54;;;;;;;8.13;2.20;;;21.70;99.90;;;;;;5013170;28;20046;-93
2022/08/26 09:50:30;;;;;;;9.85;2.42;;;21.70;99.90;;;;;;5010037;28;20050;-94
2022/08/26 09:53:13;;;;;;;9.02;2.20;;;21.70;99.90;;;;;;4989810;28;20054;-94
2022/08/26 09:55:44;;;;;;;9.20;2.20;;;21.70;99.90;;;;;;5009033;28;20054;-91
2022/08/26 09:58:35;;;;;;;11.85;2.95;;;21.60;99.90;;;;;;4992481;28;20406;-96
2022/08/26 10:01:05;;;;;;;9.30;2.53;;;21.60;99.90;;;;;;5004076;28;20136;-91
2022/08/26 10:03:33;;;;;;;11.13;2.53;;;21.60;99.90;;;;;;4991403;28;20042;-96
2022/08/26 10:06:03;;;;;;;8.45;2.10;;;21.70;99.90;;;;;;4990562;28;20049;-91
2022/08/26 10:08:37;;;;;;;11.80;2.90;;;21.70;99.90;;;;;;4992102;28;20506;-93
2022/08/26 10:11:25;;;;;;;9.75;2.50;;;21.60;99.90;;;;;;5012369;28;20049;-95
2022/08/26 10:14:00;;;;;;;11.65;2.70;;;21.60;99.90;;;;;;5012714;28;20049;-92
2022/08/26 10:16:28;;;;;;;7.63;2.13;;;21.60;99.90;;;;;;5015352;28;20089;-90
2022/08/26 10:19:03;;;;;;;10.40;2.58;;;21.70;99.90;;;;;;5011381;28;20085;-94
2022/08/26 10:21:43;;;;;;;10.30;2.90;;;21.70;99.90;;;;;;5013925;28;20117;-93
2022/08/26 10:24:14;;;;;;;9.73;2.42;;;21.70;99.90;;;;;;4999899;28;20068;-94
2022/08/26 10:26:41;;;;;;;8.20;2.28;;;21.80;99.90;;;;;;5006099;28;20041;-93
2022/08/26 10:29:21;;;;;;;10.57;2.53;;;22.00;99.90;;;;;;5011894;28;20125;-95
2022/08/26 10:31:57;;;;;;;9.32;2.88;;;22.10;99.90;;;;;;5012628;28;20045;-91
2022/08/26 10:34:23;;;;;;;9.32;2.35;;;22.10;99.90;;;;;;4998485;28;20104;-92
2022/08/26 10:37:16;;;;;;;8.75;2.72;;;22.10;99.90;;;;;;5014868;28;20038;-95
2022/08/26 10:40:06;;;;;;;9.50;2.35;;;22.00;99.90;;;;;;4982955;28;20046;-93
2022/08/26 10:42:43;;;;;;;8.68;2.83;;;22.00;99.90;;;;;;4997408;28;20045;-91
2022/08/26 10:45:24;;;;;;;9.88;2.60;;;21.90;99.90;;;;;;5012317;28;20100;-95
2022/08/26 10:48:03;;;;;;;10.88;2.67;;;21.90;99.90;;;;;;5011752;28;20045;-92
2022/08/26 10:50:42;;;;;;;11.33;3.43;;;21.90;99.90;;;;;;5002617;28;20026;-93
2022/08/26 10:53:43;;;;;;;11.88;3.25;;;21.90;99.90;;;;;;5006548;28;20060;-91
2022/08/26 10:56:27;;;;;;;;;;;21.90;99.90;;;;;;4920828;29;20047;-88
2022/08/26 10:58:57;;;;;;;11.18;2.72;;;21.80;99.90;;;;;;4929894;29;19922;-91
2022/08/26 11:01:53;;;;;;;10.45;2.80;;;21.80;99.90;;;;;;4933508;29;20078;-92
2022/08/26 11:04:36;;;;;;;9.10;2.75;;;21.80;99.90;;;;;;4938111;29;20047;-92
2022/08/26 11:07:39;;;;;;;13.82;3.00;;;21.70;99.90;;;;;;4912459;29;20043;-90
2022/08/26 11:10:12;;;;;;;10.70;3.00;;;21.70;99.90;;;;;;4884069;29;20061;-93
2022/08/26 11:12:38;;;;;;;10.07;3.00;;;21.80;99.90;;;;;;4893136;29;20073;-95
2022/08/26 11:15:32;;;;;;;10.32;2.70;;;21.90;99.90;;;;;;4898354;29;20056;-94
2022/08/26 11:18:02;;;;;;;8.90;2.65;;;21.80;99.90;;;;;;4893375;29;20086;-94
2022/08/26 11:20:38;;;;;;;8.57;3.15;;;21.80;99.90;;;;;;4890042;29;20048;-92
2022/08/26 11:23:21;;;;;;;12.30;3.63;;;21.80;99.90;;;;;;4870762;29;20079;-96
2022/08/26 11:26:08;;;;;;;9.35;2.50;;;21.90;99.90;;;;;;4893651;29;20052;-93
2022/08/26 11:28:35;;;;;;;9.95;2.90;;;21.90;99.90;;;;;;4882768;29;20099;-90
2022/08/26 11:31:02;;;;;;;11.38;2.85;;;21.80;99.90;;;;;;4903929;29;20387;-92
2022/08/26 11:33:42;;;;;;;11.93;2.90;;;21.90;99.90;;;;;;4924629;29;20067;-92
2022/08/26 11:36:09;;;;;;;7.68;2.53;;;22.00;99.90;;;;;;4914090;29;20082;-90
2022/08/26 11:38:41;;;;;;;9.10;2.60;;;22.10;99.90;;;;;;4918409;29;20126;-91
2022/08/26 11:41:16;;;;;;;9.48;2.70;;;22.20;99.90;;;;;;4931466;29;20066;-87
2022/08/26 11:43:42;;;;;;;9.65;2.53;;;22.20;99.90;;;;;;4945690;29;20396;-87
2022/08/26 11:46:21;;;;;;;8.07;2.20;;;22.10;99.90;;;;;;4959437;28;20498;-87
2022/08/26 11:48:47;;;;;;;9.13;2.63;;;22.10;99.90;;;;;;5005975;28;20062;-88
2022/08/26 11:51:19;;;;;;;11.23;2.55;;;22.00;99.90;;;;;;5002509;28;20461;-87
2022/08/26 11:53:45;;;;;;;10.88;2.50;;;21.90;99.90;;;;;;5006978;28;20046;-86
2022/08/26 11:56:28;;;;;;;11.65;3.10;;;21.80;99.90;;;;;;5007576;28;20041;-87
2022/08/26 11:58:57;;;;;;;9.68;2.60;;;21.60;99.90;;;;;;4989865;28;20053;-86
2022/08/26 12:01:31;;;;;;;9.02;2.55;;;21.60;99.90;;;;;;5004005;28;20038;-86
2022/08/26 12:03:59;;;;;;;10.65;2.50;;;21.50;99.90;;;;;;5007107;28;20081;-87
2022/08/26 12:06:29;;;;;;;11.32;3.13;;;21.40;99.90;;;;;;5007159;28;20042;-88
2022/08/26 12:08:58;;;;;;;9.70;2.40;;;21.40;99.90;;;;;;5008718;28;20085;-87
2022/08/26 12:11:30;;;;;;;12.18;2.80;;;21.30;99.90;;;;;;4993451;28;20042;-87
2022/08/26 12:14:14;;;;;;;10.70;2.42;;;21.20;99.90;;;;;;4992360;28;20110;-87
2022/08/26 12:16:42;;;;;;;7.90;2.35;;;21.10;99.90;;;;;;5008974;28;20065;-87
2022/08/26 12:19:32;;;;;;;11.20;2.60;;;21.10;99.90;;;;;;4991683;28;20042;-88
2022/08/26 12:22:07;;;;;;;8.55;2.60;;;21.00;99.90;;;;;;4990263;28;20092;-88
2022/08/26 12:24:33;;;;;;;11.20;2.75;;;21.00;99.90;;;;;;5007478;28;20707;-86
2022/08/26 12:27:16;;;;;;;10.80;2.80;;;20.90;99.90;;;;;;5005944;28;20056;-87
2022/08/26 12:29:42;;;;;;;9.75;2.92;;;21.00;99.90;;;;;;5004745;28;20100;-86
2022/08/26 12:32:12;;;;;;;10.23;2.95;;;21.00;99.90;;;;;;5006422;28;20367;-88
2022/08/26 12:34:43;;;;;;;13.00;3.17;;;21.10;99.90;;;;;;4989129;28;20045;-86
2022/08/26 12:37:11;;;;;;;9.23;3.00;;;21.10;99.90;;;;;;5005503;28;20042;-89
2022/08/26 12:39:39;;;;;;;13.00;3.22;;;21.00;99.90;;;;;;4985621;28;20052;-89
2022/08/26 12:42:19;;;;;;;10.70;3.22;;;21.00;99.90;;;;;;5006848;28;20100;-88
2022/08/26 12:45:05;;;;;;;11.15;3.45;;;21.00;99.90;;;;;;5004629;28;20401;-91
2022/08/26 12:47:37;;;;;;;10.57;3.42;;;21.00;99.90;;;;;;5008824;28;20430;-90
2022/08/26 12:50:10;;;;;;;12.20;3.80;;;21.00;99.90;;;;;;5006120;28;20479;-89
2022/08/26 12:53:01;;;;;;;8.73;3.47;;;21.10;99.90;;;;;;5006506;28;20046;-90
2022/08/26 12:55:42;;;;;;;9.98;3.63;;;21.10;99.90;;;;;;4982860;28;20058;-89